Time;durP1;ratioP1;P1;durP2;ratioP2;P2;SDS_P1;SDS_P2;PMS_P1;PMS_P2;Temp;Humidity;BMP_temperature;BMP_pressure;BME280_temperature;BME280_humidity;BME280_pressure;Samples;Min_cycle;Max_cycle;Signal;HPM_P1;HPM_P2
2023/02/07 00:00:39;;;;;;;53.90;20.20;;;;;;;-145.18;100.00;60484.78;5034577;28;20049;-62
2023/02/07 00:03:04;;;;;;;50.30;19.67;;;;;;;-145.18;100.00;60484.78;5052699;28;20025;-62
2023/02/07 00:05:30;;;;;;;51.00;21.23;;;;;;;-145.18;100.00;60484.78;5034001;28;20370;-61
2023/02/07 00:07:55;;;;;;;67.33;23.00;;;;;;;-145.18;100.00;60484.78;5032607;28;20029;-61
2023/02/07 00:10:21;;;;;;;56.80;22.87;;;;;;;-145.18;100.00;60484.78;5042440;28;20040;-62
2023/02/07 00:12:46;;;;;;;58.77;22.27;;;;;;;-145.18;100.00;60484.78;5032560;28;20033;-61
2023/02/07 00:15:12;;;;;;;60.57;22.77;;;;;;;-145.18;100.00;60484.78;5032181;28;20060;-61
2023/02/07 00:17:37;;;;;;;59.37;23.30;;;;;;;-145.18;100.00;60484.78;5032383;28;20365;-61
2023/02/07 00:20:04;;;;;;;56.60;23.17;;;;;;;-145.18;100.00;60484.78;5044784;28;20086;-61
2023/02/07 00:22:30;;;;;;;55.03;22.17;;;;;;;-145.18;100.00;60484.78;5052216;28;20025;-61
2023/02/07 00:24:56;;;;;;;53.03;21.23;;;;;;;-145.18;100.00;60484.78;5040048;28;20593;-61
2023/02/07 00:27:21;;;;;;;52.53;21.50;;;;;;;-145.18;100.00;60484.78;5032260;28;20029;-61
2023/02/07 00:29:47;;;;;;;48.53;20.50;;;;;;;-145.18;100.00;60484.78;5034844;28;20032;-61
2023/02/07 00:32:12;;;;;;;48.73;19.53;;;;;;;-145.18;100.00;60484.78;5032042;28;20028;-62
2023/02/07 00:34:37;;;;;;;43.90;19.80;;;;;;;-145.18;100.00;60484.78;5040796;28;20021;-62
2023/02/07 00:37:04;;;;;;;49.47;20.37;;;;;;;-145.18;100.00;60484.78;5052307;28;20068;-61
2023/02/07 00:39:30;;;;;;;50.17;21.93;;;;;;;-145.18;100.00;60484.78;5050504;28;20025;-62
2023/02/07 00:41:56;;;;;;;56.43;21.87;;;;;;;-145.18;100.00;60484.78;5050316;28;20262;-62
2023/02/07 00:44:21;;;;;;;53.20;22.13;;;;;;;-145.18;100.00;60484.78;5030404;28;20057;-63
2023/02/07 00:46:47;;;;;;;59.27;22.10;;;;;;;-145.18;100.00;60484.78;5031800;28;20100;-61
2023/02/07 00:49:12;;;;;;;63.83;22.07;;;;;;;-145.18;100.00;60484.78;5016508;28;20017;-61
2023/02/07 00:51:38;;;;;;;49.37;20.73;;;;;;;-145.18;100.00;60484.78;5031818;28;20033;-61
2023/02/07 00:54:04;;;;;;;51.73;20.70;;;;;;;-145.18;100.00;60484.78;5031453;28;20033;-61
2023/02/07 00:56:31;;;;;;;54.43;20.90;;;;;;;-145.18;100.00;60484.78;5031601;28;20108;-61
2023/02/07 00:58:56;;;;;;;47.77;19.43;;;;;;;-145.18;100.00;60484.78;5031919;28;20260;-61
2023/02/07 01:01:23;;;;;;;45.17;18.97;;;;;;;-145.18;100.00;60484.78;5032467;28;20342;-61
2023/02/07 01:03:49;;;;;;;36.20;16.77;;;;;;;-145.18;100.00;60484.78;5031793;28;20048;-62
2023/02/07 01:06:15;;;;;;;27.43;10.83;;;;;;;-145.18;100.00;60484.78;5031694;28;20280;-61
2023/02/07 01:08:41;;;;;;;22.20;10.17;;;;;;;-145.18;100.00;60484.78;5031875;28;20613;-62
2023/02/07 01:11:10;;;;;;;36.87;15.57;;;;;;;-145.18;100.00;60484.78;5031524;28;20313;-61
2023/02/07 01:13:35;;;;;;;35.67;16.23;;;;;;;-145.18;100.00;60484.78;5031600;28;20029;-61
2023/02/07 01:16:01;;;;;;;36.10;15.57;;;;;;;-145.18;100.00;60484.78;5030989;28;20389;-61
2023/02/07 01:18:27;;;;;;;40.43;16.03;;;;;;;-145.18;100.00;60484.78;5033146;28;20021;-61
2023/02/07 01:20:52;;;;;;;34.27;15.17;;;;;;;-145.18;100.00;60484.78;5032440;28;20122;-62
2023/02/07 01:23:18;;;;;;;32.37;13.70;;;;;;;-145.18;100.00;60484.78;5031729;28;20025;-61
2023/02/07 01:25:44;;;;;;;30.57;13.80;;;;;;;-145.18;100.00;60484.78;5048601;28;20542;-61
2023/02/07 01:28:14;;;;;;;32.17;13.10;;;;;;;-145.18;100.00;60484.78;5040107;28;20295;-62
2023/02/07 01:30:41;;;;;;;29.30;13.60;;;;;;;-145.18;100.00;60484.78;5030322;28;20284;-61
2023/02/07 01:33:07;;;;;;;22.77;11.20;;;;;;;-145.18;100.00;60484.78;5032453;28;20022;-61
2023/02/07 01:35:33;;;;;;;22.03;11.20;;;;;;;-145.18;100.00;60484.78;5051750;28;20021;-61
2023/02/07 01:37:58;;;;;;;24.57;10.33;;;;;;;-145.18;100.00;60484.78;5055344;28;20259;-61
2023/02/07 01:40:25;;;;;;;23.23;10.70;;;;;;;-145.18;100.00;60484.78;5039868;28;20036;-61
2023/02/07 01:42:51;;;;;;;21.80;10.97;;;;;;;-145.18;100.00;60484.78;5034845;28;20502;-62
2023/02/07 01:45:22;;;;;;;21.83;10.20;;;;;;;-145.18;100.00;60484.78;5037949;28;20021;-61
2023/02/07 01:47:49;;;;;;;23.25;10.70;;;;;;;-145.18;100.00;60484.78;5034529;28;20061;-62
2023/02/07 01:50:14;;;;;;;22.37;9.87;;;;;;;-145.18;100.00;60484.78;5035537;28;20370;-61
2023/02/07 01:52:40;;;;;;;23.37;11.03;;;;;;;-145.18;100.00;60484.78;5035294;28;20033;-62
2023/02/07 01:55:11;;;;;;;29.10;13.03;;;;;;;-145.18;100.00;60484.78;5045832;28;20025;-62
2023/02/07 01:57:37;;;;;;;30.53;15.53;;;;;;;-145.18;100.00;60484.78;5054957;28;20495;-62
2023/02/07 02:00:03;;;;;;;29.00;13.90;;;;;;;-145.18;100.00;60484.78;5044780;28;20036;-62
2023/02/07 02:02:32;;;;;;;33.83;15.43;;;;;;;-145.18;100.00;60484.78;5068461;22;20095;-65
2023/02/07 02:04:58;;;;;;;27.73;14.13;;;;;;;-145.18;100.00;60484.78;5079948;28;20043;-65
2023/02/07 02:07:25;;;;;;;24.90;11.00;;;;;;;-145.18;100.00;60484.78;5088752;28;20029;-64
2023/02/07 02:09:53;;;;;;;27.07;12.77;;;;;;;-145.18;100.00;60484.78;5074573;28;20119;-64
2023/02/07 02:12:40;;;;;;;23.70;11.50;;;;;;;-145.18;100.00;60484.78;5074964;28;20408;-64
2023/02/07 02:15:17;;;;;;;30.07;13.13;;;;;;;-145.18;100.00;60484.78;5074603;28;20107;-63
2023/02/07 02:18:01;;;;;;;23.03;11.90;;;;;;;-145.18;100.00;60484.78;5073972;28;20305;-63
2023/02/07 02:21:03;;;;;;;24.83;12.13;;;;;;;-145.18;100.00;60484.78;5085481;28;21019;-63
2023/02/07 02:24:06;;;;;;;19.67;9.55;;;;;;;-145.18;100.00;60484.78;5094759;28;20270;-62
2023/02/07 02:26:59;;;;;;;21.60;10.77;;;;;;;-145.18;100.00;60484.78;5074854;28;20021;-62
2023/02/07 02:29:46;;;;;;;21.17;10.07;;;;;;;-145.18;100.00;60484.78;5073543;28;20471;-62
2023/02/07 02:32:14;;;;;;;25.83;10.97;;;;;;;-145.18;100.00;60484.78;5072018;28;20279;-64
2023/02/07 02:34:59;;;;;;;23.03;12.53;;;;;;;-145.18;100.00;60484.78;5069004;28;20318;-63
2023/02/07 02:37:43;;;;;;;26.70;12.83;;;;;;;-145.18;100.00;60484.78;5063413;28;20275;-63
2023/02/07 02:40:21;;;;;;;30.67;12.93;;;;;;;-145.18;100.00;60484.78;5080339;28;20360;-62
2023/02/07 02:42:57;;;;;;;28.03;13.40;;;;;;;-145.18;100.00;60484.78;5091540;28;20258;-62
2023/02/07 02:45:35;;;;;;;31.43;14.73;;;;;;;-145.18;100.00;60484.78;5059593;28;20052;-62
2023/02/07 02:48:02;;;;;;;31.93;12.63;;;;;;;-145.18;100.00;60484.78;5071114;28;20283;-61
2023/02/07 02:50:29;;;;;;;33.30;14.43;;;;;;;-145.18;100.00;60484.78;5081401;28;20039;-64
2023/02/07 02:52:55;;;;;;;34.27;15.20;;;;;;;-145.18;100.00;60484.78;5093763;28;20353;-64
2023/02/07 02:55:39;;;;;;;28.90;13.63;;;;;;;-145.18;100.00;60484.78;5093359;28;20349;-64
2023/02/07 02:58:13;;;;;;;29.97;13.17;;;;;;;-145.18;100.00;60484.78;5092798;28;20647;-64
2023/02/07 03:01:02;;;;;;;30.33;13.97;;;;;;;-145.18;100.00;60484.78;5072669;28;20302;-65
2023/02/07 03:03:28;;;;;;;29.93;14.07;;;;;;;-145.18;100.00;60484.78;5073316;28;20369;-64
2023/02/07 03:06:05;;;;;;;30.87;14.33;;;;;;;-145.18;100.00;60484.78;5054256;28;20390;-69
2023/02/07 03:08:58;;;;;;;37.87;16.43;;;;;;;-145.18;100.00;60484.78;5061556;28;20467;-69
2023/02/07 03:11:25;;;;;;;37.87;16.97;;;;;;;-145.18;100.00;60484.78;5075695;28;20823;-69
2023/02/07 03:13:56;;;;;;;38.50;18.67;;;;;;;-145.18;100.00;60484.78;5082463;28;20282;-69
2023/02/07 03:16:33;;;;;;;43.10;19.48;;;;;;;-145.18;100.00;60484.78;5072873;28;20375;-70
2023/02/07 03:19:36;;;;;;;41.80;19.87;;;;;;;-145.18;100.00;60484.78;5070895;28;20115;-69
2023/02/07 03:22:09;;;;;;;45.87;20.70;;;;;;;-145.18;100.00;60484.78;5055796;28;20271;-70
2023/02/07 03:24:39;;;;;;;52.80;21.93;;;;;;;-145.18;100.00;60484.78;5091499;28;20269;-69
2023/02/07 03:27:10;;;;;;;49.23;22.30;;;;;;;-145.18;100.00;60484.78;5093531;28;20388;-69
2023/02/07 03:29:38;;;;;;;53.67;21.80;;;;;;;-145.18;100.00;60484.78;5073556;28;20386;-69
2023/02/07 03:32:06;;;;;;;33.80;14.23;;;;;;;-145.18;100.00;60484.78;5072516;28;20290;-69
2023/02/07 03:34:41;;;;;;;48.63;20.40;;;;;;;-145.18;100.00;60484.78;5073551;28;20290;-69
2023/02/07 03:37:29;;;;;;;45.97;21.17;;;;;;;-145.18;100.00;60484.78;5073270;28;20263;-69
2023/02/07 03:39:55;;;;;;;43.47;20.27;;;;;;;-145.18;100.00;60484.78;5073055;28;20746;-69
2023/02/07 03:42:42;;;;;;;48.67;21.70;;;;;;;-145.18;100.00;60484.78;5072069;28;20332;-69
2023/02/07 03:45:13;;;;;;;46.20;18.97;;;;;;;-145.18;100.00;60484.78;5057317;28;20753;-69
2023/02/07 03:47:38;;;;;;;45.60;20.57;;;;;;;-145.18;100.00;60484.78;5067416;28;20314;-69
2023/02/07 03:50:04;;;;;;;47.33;21.20;;;;;;;-145.18;100.00;60484.78;5072458;28;20322;-69
2023/02/07 03:52:29;;;;;;;47.13;20.80;;;;;;;-145.18;100.00;60484.78;5072609;28;20028;-70
2023/02/07 03:54:55;;;;;;;45.47;20.57;;;;;;;-145.18;100.00;60484.78;5090483;28;20024;-70
2023/02/07 03:57:20;;;;;;;31.07;13.80;;;;;;;-145.18;100.00;60484.78;5078973;28;20486;-69
2023/02/07 03:59:46;;;;;;;36.80;16.00;;;;;;;-145.18;100.00;60484.78;5072146;28;20028;-69
2023/02/07 04:02:11;;;;;;;44.43;20.10;;;;;;;-145.18;100.00;60484.78;5071823;28;20104;-69
2023/02/07 04:04:37;;;;;;;47.00;21.30;;;;;;;-145.18;100.00;60484.78;5087114;28;20028;-70
2023/02/07 04:07:02;;;;;;;50.80;21.63;;;;;;;-145.18;100.00;60484.78;5092684;28;20386;-69
2023/02/07 04:09:28;;;;;;;53.43;23.37;;;;;;;-145.18;100.00;60484.78;5079836;28;20025;-69
2023/02/07 04:11:53;;;;;;;49.37;22.73;;;;;;;-145.18;100.00;60484.78;5072420;28;20028;-69
2023/02/07 04:14:20;;;;;;;51.83;22.93;;;;;;;-145.18;100.00;60484.78;5071768;28;20099;-69
2023/02/07 04:16:46;;;;;;;55.60;24.03;;;;;;;-145.18;100.00;60484.78;5072288;28;20036;-69
2023/02/07 04:19:11;;;;;;;62.87;25.30;;;;;;;-145.18;100.00;60484.78;5080747;28;20629;-69
2023/02/07 04:21:37;;;;;;;60.70;24.13;;;;;;;-145.18;100.00;60484.78;5092756;28;20262;-69
2023/02/07 04:24:02;;;;;;;55.17;23.27;;;;;;;-145.18;100.00;60484.78;5084974;28;20383;-69
2023/02/07 04:26:28;;;;;;;51.33;21.70;;;;;;;-145.18;100.00;60484.78;5072560;28;20036;-70
2023/02/07 04:28:53;;;;;;;52.73;23.23;;;;;;;-145.18;100.00;60484.78;5071242;28;20052;-70
2023/02/07 04:31:18;;;;;;;55.10;24.00;;;;;;;-145.18;100.00;60484.78;5080900;28;20054;-70
2023/02/07 04:33:44;;;;;;;56.27;23.90;;;;;;;-145.18;100.00;60484.78;5077016;28;20028;-69
2023/02/07 04:36:10;;;;;;;59.30;24.83;;;;;;;-145.18;100.00;60484.78;5072226;28;20044;-69
2023/02/07 04:38:35;;;;;;;60.17;24.97;;;;;;;-145.18;100.00;60484.78;5074100;28;20111;-69
2023/02/07 04:41:04;;;;;;;71.20;26.80;;;;;;;-145.18;100.00;60484.78;5089041;28;20337;-69
2023/02/07 04:43:31;;;;;;;67.67;26.37;;;;;;;-145.18;100.00;60484.78;5071575;28;20115;-70
2023/02/07 04:45:56;;;;;;;72.00;26.97;;;;;;;-145.18;100.00;60484.78;5070890;28;20278;-70
2023/02/07 04:48:22;;;;;;;77.80;28.90;;;;;;;-145.18;100.00;60484.78;5071333;28;20332;-69
2023/02/07 04:50:47;;;;;;;76.60;27.77;;;;;;;-145.18;100.00;60484.78;5054155;28;20093;-70
2023/02/07 04:53:13;;;;;;;86.73;28.33;;;;;;;-145.18;100.00;60484.78;5071906;28;20017;-69
2023/02/07 04:55:38;;;;;;;92.73;28.83;;;;;;;-145.18;100.00;60484.78;5081661;28;20428;-69
2023/02/07 04:58:05;;;;;;;92.00;30.93;;;;;;;-145.18;100.00;60484.78;5072009;28;20032;-69
2023/02/07 05:00:31;;;;;;;96.47;31.60;;;;;;;-145.18;100.00;60484.78;5069486;28;20472;-69
2023/02/07 05:02:56;;;;;;;98.97;30.97;;;;;;;-145.18;100.00;60484.78;5070463;28;20289;-70
2023/02/07 05:05:22;;;;;;;98.63;31.20;;;;;;;-145.18;100.00;60484.78;5071349;28;20451;-69
2023/02/07 05:07:47;;;;;;;109.07;32.63;;;;;;;-145.18;100.00;60484.78;5068742;28;20078;-70
2023/02/07 05:10:13;;;;;;;111.17;33.17;;;;;;;-145.18;100.00;60484.78;5083332;28;20063;-69
2023/02/07 05:12:38;;;;;;;114.27;34.27;;;;;;;-145.18;100.00;60484.78;5078240;28;20431;-70
2023/02/07 05:15:04;;;;;;;96.43;29.20;;;;;;;-145.18;100.00;60484.78;5070930;28;20028;-70
2023/02/07 05:17:33;;;;;;;100.63;32.47;;;;;;;-145.18;100.00;60484.78;5082497;28;20031;-71
2023/02/07 05:20:01;;;;;;;108.27;32.90;;;;;;;-145.18;100.00;60484.78;5078722;28;20032;-71
2023/02/07 05:22:27;;;;;;;105.70;35.47;;;;;;;-145.18;100.00;60484.78;5074193;28;20651;-70
2023/02/07 05:24:52;;;;;;;102.40;33.07;;;;;;;-145.18;100.00;60484.78;5071381;28;20286;-71
2023/02/07 05:27:18;;;;;;;107.83;36.33;;;;;;;-145.18;100.00;60484.78;5071361;28;20380;-71
2023/02/07 05:29:43;;;;;;;113.70;35.00;;;;;;;-145.18;100.00;60484.78;5069684;28;20025;-70
2023/02/07 05:34:58;;;;;;;107.97;34.60;;;;;;;-145.18;100.00;60484.78;5051319;28;20036;-70
2023/02/07 05:37:23;;;;;;;108.60;34.27;;;;;;;-145.18;100.00;60484.78;5055979;28;20263;-71
2023/02/07 05:39:49;;;;;;;125.50;36.87;;;;;;;-145.18;100.00;60484.78;5071557;28;20032;-70
2023/02/07 05:42:14;;;;;;;120.30;35.57;;;;;;;-145.18;100.00;60484.78;5071387;28;20376;-70
2023/02/07 05:44:39;;;;;;;126.53;36.50;;;;;;;-145.18;100.00;60484.78;5070501;28;20056;-70
2023/02/07 05:47:05;;;;;;;121.57;37.20;;;;;;;-145.18;100.00;60484.78;5070423;28;20021;-70
2023/02/07 05:49:30;;;;;;;123.30;34.87;;;;;;;-145.18;100.00;60484.78;5071128;28;20028;-70
2023/02/07 05:51:56;;;;;;;126.27;34.40;;;;;;;-145.18;100.00;60484.78;5071332;28;20105;-70
2023/02/07 05:54:21;;;;;;;122.47;33.13;;;;;;;-145.18;100.00;60484.78;5070934;28;20028;-70
2023/02/07 05:56:47;;;;;;;108.10;32.33;;;;;;;-145.18;100.00;60484.78;5069884;28;20055;-70
2023/02/07 05:59:12;;;;;;;98.67;33.30;;;;;;;-145.18;100.00;60484.78;5080307;28;20085;-70
2023/02/07 06:01:37;;;;;;;99.33;35.57;;;;;;;-145.18;100.00;60484.78;5066981;28;20048;-70
2023/02/07 06:04:03;;;;;;;105.37;34.50;;;;;;;-145.18;100.00;60484.78;5071262;28;20059;-70
2023/02/07 06:06:28;;;;;;;117.13;36.20;;;;;;;-145.18;100.00;60484.78;5081888;28;20016;-69
2023/02/07 06:08:53;;;;;;;121.60;37.90;;;;;;;-145.18;100.00;60484.78;5074078;28;20024;-70
2023/02/07 06:11:19;;;;;;;131.30;37.80;;;;;;;-145.18;100.00;60484.78;5078356;28;20111;-70
2023/02/07 06:13:45;;;;;;;134.20;40.27;;;;;;;-145.18;100.00;60484.78;5073213;28;20404;-70
2023/02/07 06:16:10;;;;;;;125.03;39.70;;;;;;;-145.18;100.00;60484.78;5075732;28;20029;-71
2023/02/07 06:18:36;;;;;;;141.17;40.27;;;;;;;-145.18;100.00;60484.78;5070887;28;20024;-70
2023/02/07 06:21:02;;;;;;;135.53;41.33;;;;;;;-145.18;100.00;60484.78;5074863;28;20464;-70
2023/02/07 06:23:27;;;;;;;135.30;40.33;;;;;;;-145.18;100.00;60484.78;5074320;28;20278;-70
2023/02/07 06:25:53;;;;;;;133.67;40.80;;;;;;;-145.18;100.00;60484.78;5074305;28;20020;-70
2023/02/07 06:28:18;;;;;;;135.73;40.90;;;;;;;-145.18;100.00;60484.78;5073678;28;20384;-69
2023/02/07 06:30:44;;;;;;;141.03;40.87;;;;;;;-145.18;100.00;60484.78;5073976;28;20083;-70
2023/02/07 06:33:10;;;;;;;136.63;40.07;;;;;;;-145.18;100.00;60484.78;5073751;28;20467;-70
2023/02/07 06:35:35;;;;;;;149.23;43.77;;;;;;;-145.18;100.00;60484.78;5073154;28;20286;-70
2023/02/07 06:38:00;;;;;;;148.37;41.37;;;;;;;-145.18;100.00;60484.78;5073830;28;20439;-70
2023/02/07 06:40:26;;;;;;;158.67;42.50;;;;;;;-145.18;100.00;60484.78;5074049;28;20029;-70
2023/02/07 06:42:51;;;;;;;152.70;41.80;;;;;;;-145.18;100.00;60484.78;5074091;28;20135;-69
2023/02/07 06:45:16;;;;;;;162.97;41.77;;;;;;;-145.18;100.00;60484.78;5072228;28;20036;-69
2023/02/07 06:47:42;;;;;;;152.30;42.00;;;;;;;-145.18;100.00;60484.78;5073096;28;20380;-70
2023/02/07 06:50:07;;;;;;;152.80;42.27;;;;;;;-145.18;100.00;60484.78;5074102;28;20024;-70
2023/02/07 06:52:33;;;;;;;162.80;42.03;;;;;;;-145.18;100.00;60484.78;5074184;28;20024;-71
2023/02/07 06:54:58;;;;;;;163.43;43.60;;;;;;;-145.18;100.00;60484.78;5074015;28;20081;-70
2023/02/07 06:57:23;;;;;;;163.27;44.27;;;;;;;-145.18;100.00;60484.78;5073757;28;20388;-70
2023/02/07 06:59:49;;;;;;;151.60;44.37;;;;;;;-145.18;100.00;60484.78;5072070;28;20104;-70
2023/02/07 07:02:16;;;;;;;172.00;43.10;;;;;;;-145.18;100.00;60484.78;5067516;28;20020;-69
2023/02/07 07:04:41;;;;;;;172.50;43.27;;;;;;;-145.18;100.00;60484.78;5073977;28;20583;-69
2023/02/07 07:07:06;;;;;;;157.37;43.90;;;;;;;-145.18;100.00;60484.78;5073403;28;20274;-70
2023/02/07 07:09:32;;;;;;;172.57;45.07;;;;;;;-145.18;100.00;60484.78;5073730;28;20027;-69
2023/02/07 07:11:57;;;;;;;169.83;46.17;;;;;;;-145.18;100.00;60484.78;5070104;28;20028;-70
2023/02/07 07:14:23;;;;;;;164.13;44.37;;;;;;;-145.18;100.00;60484.78;5058647;28;20073;-69
2023/02/07 07:16:48;;;;;;;172.67;46.03;;;;;;;-145.18;100.00;60484.78;5072963;28;20081;-70
2023/02/07 07:19:13;;;;;;;162.10;44.60;;;;;;;-145.18;100.00;60484.78;5069784;28;20284;-70
2023/02/07 07:21:39;;;;;;;169.73;47.97;;;;;;;-145.18;100.00;60484.78;5071814;28;20017;-70
2023/02/07 07:24:05;;;;;;;173.57;49.00;;;;;;;-145.18;100.00;60484.78;5072026;28;20020;-70
2023/02/07 07:26:30;;;;;;;164.30;46.37;;;;;;;-145.18;100.00;60484.78;5072284;28;20017;-70
2023/02/07 07:28:58;;;;;;;168.37;47.03;;;;;;;-145.18;100.00;60484.78;5072037;28;20404;-69
2023/02/07 07:31:24;;;;;;;149.43;44.33;;;;;;;-145.18;100.00;60484.78;5071311;28;20040;-71
2023/02/07 07:33:51;;;;;;;149.60;45.73;;;;;;;-145.18;100.00;60484.78;5071862;28;20274;-70
2023/02/07 07:36:16;;;;;;;150.47;43.67;;;;;;;-145.18;100.00;60484.78;5068225;28;20025;-70
2023/02/07 07:38:42;;;;;;;143.30;45.77;;;;;;;-145.18;100.00;60484.78;5073334;28;20342;-70
2023/02/07 07:41:07;;;;;;;142.37;44.80;;;;;;;-145.18;100.00;60484.78;5072965;28;20048;-69
2023/02/07 07:43:33;;;;;;;147.87;47.90;;;;;;;-145.18;100.00;60484.78;5070055;28;20020;-70
2023/02/07 07:45:59;;;;;;;139.43;45.33;;;;;;;-145.18;100.00;60484.78;5072322;28;20036;-70
2023/02/07 07:48:24;;;;;;;114.73;40.77;;;;;;;-145.18;100.00;60484.78;5069664;28;20430;-70
2023/02/07 07:50:50;;;;;;;82.23;34.50;;;;;;;-145.18;100.00;60484.78;5072888;28;20028;-71
2023/02/07 07:53:17;;;;;;;75.50;30.53;;;;;;;-145.18;100.00;60484.78;5072648;28;20459;-70
2023/02/07 07:55:48;;;;;;;74.93;29.47;;;;;;;-145.18;100.00;60484.78;5072619;28;20016;-70
2023/02/07 07:58:13;;;;;;;58.83;28.02;;;;;;;-145.18;100.00;60484.78;5071838;28;20070;-70
2023/02/07 08:00:38;;;;;;;49.07;23.97;;;;;;;-145.18;100.00;60484.78;5072165;28;20036;-70
2023/02/07 08:03:04;;;;;;;45.00;23.20;;;;;;;-145.18;100.00;60484.78;5071910;28;20103;-68
2023/02/07 08:05:29;;;;;;;40.50;22.43;;;;;;;-145.18;100.00;60484.78;5070846;28;20438;-68
2023/02/07 08:07:55;;;;;;;38.07;20.27;;;;;;;-145.18;100.00;60484.78;5072437;28;20026;-68
2023/02/07 08:10:20;;;;;;;29.60;16.27;;;;;;;-145.18;100.00;60484.78;5072848;28;20021;-68
2023/02/07 08:12:45;;;;;;;30.83;16.63;;;;;;;-145.18;100.00;60484.78;5072496;28;20399;-68
2023/02/07 08:15:12;;;;;;;28.90;16.17;;;;;;;-145.18;100.00;60484.78;5070688;28;20052;-68
2023/02/07 08:17:38;;;;;;;28.23;16.57;;;;;;;-145.18;100.00;60484.78;5069072;28;20024;-68
2023/02/07 08:20:04;;;;;;;23.43;15.17;;;;;;;-145.18;100.00;60484.78;5072201;28;20016;-68
2023/02/07 08:22:30;;;;;;;28.47;16.93;;;;;;;-145.18;100.00;60484.78;5067933;28;20419;-67
2023/02/07 08:24:55;;;;;;;23.87;15.00;;;;;;;-145.18;100.00;60484.78;5071948;28;20024;-67
2023/02/07 08:27:21;;;;;;;24.57;14.87;;;;;;;-145.18;100.00;60484.78;5072444;28;20384;-67
2023/02/07 08:29:46;;;;;;;23.93;13.73;;;;;;;-145.18;100.00;60484.78;5069415;28;20064;-67
2023/02/07 08:32:12;;;;;;;21.60;13.20;;;;;;;-145.18;100.00;60484.78;5071412;28;20029;-67
2023/02/07 08:34:38;;;;;;;20.30;12.30;;;;;;;-145.18;100.00;60484.78;5071939;28;20032;-67
2023/02/07 08:37:05;;;;;;;21.87;13.07;;;;;;;-145.18;100.00;60484.78;5072136;28;20075;-67
2023/02/07 08:39:31;;;;;;;20.60;11.73;;;;;;;-145.18;100.00;60484.78;5072141;28;20141;-67
2023/02/07 08:41:56;;;;;;;22.37;11.93;;;;;;;-145.18;100.00;60484.78;5071916;28;20037;-67
2023/02/07 08:44:22;;;;;;;22.10;12.67;;;;;;;-145.18;100.00;60484.78;5070248;28;20036;-67
2023/02/07 08:46:47;;;;;;;20.30;11.90;;;;;;;-145.18;100.00;60484.78;5072045;28;20024;-67
2023/02/07 08:49:13;;;;;;;14.67;8.17;;;;;;;-145.18;100.00;60484.78;5068227;28;20035;-67
2023/02/07 08:51:38;;;;;;;17.80;10.07;;;;;;;-145.18;100.00;60484.78;5053865;28;20430;-67
2023/02/07 08:54:03;;;;;;;18.33;10.50;;;;;;;-145.18;100.00;60484.78;5071786;28;20099;-67
2023/02/07 08:56:29;;;;;;;18.90;10.37;;;;;;;-145.18;100.00;60484.78;5071785;28;20017;-66
2023/02/07 08:58:54;;;;;;;17.47;9.37;;;;;;;-145.18;100.00;60484.78;5069534;28;20044;-67
2023/02/07 09:01:20;;;;;;;17.60;9.93;;;;;;;-145.18;100.00;60484.78;5069560;28;20024;-67
2023/02/07 09:03:45;;;;;;;18.27;10.87;;;;;;;-145.18;100.00;60484.78;5052050;28;20115;-67
2023/02/07 09:06:11;;;;;;;17.87;9.63;;;;;;;-145.18;100.00;60484.78;5071817;28;20020;-67
2023/02/07 09:08:37;;;;;;;16.83;9.90;;;;;;;-145.18;100.00;60484.78;5069824;28;20028;-67
2023/02/07 09:11:02;;;;;;;18.57;10.10;;;;;;;-145.18;100.00;60484.78;5052452;28;20099;-67
2023/02/07 09:13:27;;;;;;;16.77;8.93;;;;;;;-145.18;100.00;60484.78;5060734;28;20031;-67
2023/02/07 09:15:57;;;;;;;17.40;9.13;;;;;;;-145.18;100.00;60484.78;5071314;28;20438;-67
2023/02/07 09:18:24;;;;;;;17.57;9.13;;;;;;;-145.18;100.00;60484.78;5067901;28;20040;-67
2023/02/07 09:20:50;;;;;;;17.40;9.03;;;;;;;-145.18;100.00;60484.78;5067481;28;20043;-67
2023/02/07 09:23:18;;;;;;;20.53;11.50;;;;;;;-145.18;100.00;60484.78;5070164;28;20024;-67
2023/02/07 09:25:51;;;;;;;16.73;8.73;;;;;;;-145.18;100.00;60484.78;5071482;28;20392;-68
2023/02/07 09:28:17;;;;;;;24.37;11.60;;;;;;;-145.18;100.00;60484.78;5069966;28;20059;-68
2023/02/07 09:30:44;;;;;;;21.23;11.47;;;;;;;-145.18;100.00;60484.78;5069569;28;20064;-67
2023/02/07 09:33:11;;;;;;;24.57;13.73;;;;;;;-145.18;100.00;60484.78;5067953;28;20444;-68
2023/02/07 09:35:45;;;;;;;22.77;10.93;;;;;;;-145.18;100.00;60484.78;5071410;28;20476;-68
2023/02/07 09:38:20;;;;;;;24.27;12.00;;;;;;;-145.18;100.00;60484.78;5071264;28;20024;-68
2023/02/07 09:40:48;;;;;;;24.23;13.27;;;;;;;-145.18;100.00;60484.78;5071186;28;20078;-68
2023/02/07 09:43:19;;;;;;;23.80;12.57;;;;;;;-145.18;100.00;60484.78;5070459;28;20025;-68
2023/02/07 09:45:51;;;;;;;25.73;13.53;;;;;;;-145.18;100.00;60484.78;5071297;28;20036;-68
2023/02/07 09:48:20;;;;;;;;;;;;;;;-145.18;100.00;60484.78;5071299;28;20476;-68
2023/02/07 09:50:58;;;;;;;18.47;7.87;;;;;;;-145.18;100.00;60484.78;5070429;28;19912;-67
2023/02/07 09:53:33;;;;;;;24.77;12.77;;;;;;;-145.18;100.00;60484.78;5071297;28;20503;-68
2023/02/07 09:56:01;;;;;;;24.37;12.70;;;;;;;-145.18;100.00;60484.78;5075028;28;20033;-68
2023/02/07 09:58:34;;;;;;;24.33;11.53;;;;;;;-145.18;100.00;60484.78;5073540;28;20028;-68
2023/02/07 10:01:12;;;;;;;24.00;13.13;;;;;;;-145.18;100.00;60484.78;5073308;28;20040;-68
2023/02/07 10:03:49;;;;;;;26.97;14.60;;;;;;;-145.18;100.00;60484.78;5071717;28;20384;-68
2023/02/07 10:06:20;;;;;;;24.37;13.23;;;;;;;-145.18;100.00;60484.78;5073649;28;20063;-68
2023/02/07 10:08:50;;;;;;;28.92;14.30;;;;;;;-145.18;100.00;60484.78;5074641;28;20103;-68
2023/02/07 10:11:54;;;;;;;22.63;13.20;;;;;;;-145.18;100.00;60484.78;5075000;28;20225;-67
2023/02/07 10:14:28;;;;;;;26.10;13.30;;;;;;;-145.18;100.00;60484.78;5067046;28;20060;-68
2023/02/07 10:17:02;;;;;;;21.70;11.13;;;;;;;-145.18;100.00;60484.78;5075130;28;20369;-68
2023/02/07 10:19:28;;;;;;;22.33;11.67;;;;;;;-145.18;100.00;60484.78;5054931;28;20090;-68
2023/02/07 10:21:59;;;;;;;24.90;11.17;;;;;;;-145.18;100.00;60484.78;5054949;28;20384;-67
2023/02/07 10:24:39;;;;;;;21.92;13.05;;;;;;;-145.18;100.00;60484.78;5054376;28;20039;-67
2023/02/07 10:27:15;;;;;;;27.03;13.60;;;;;;;-145.18;100.00;60484.78;5074182;28;20099;-67
2023/02/07 10:30:34;;;;;;;23.67;13.87;;;;;;;-145.18;100.00;60484.78;5074250;28;20059;-67
2023/02/07 10:33:07;;;;;;;23.13;11.80;;;;;;;-145.18;100.00;60484.78;5047839;28;20048;-67
2023/02/07 10:35:38;;;;;;;24.63;13.80;;;;;;;-145.18;100.00;60484.78;5074400;28;20020;-67
2023/02/07 10:38:20;;;;;;;21.05;11.23;;;;;;;-145.18;100.00;60484.78;5074292;28;20107;-67
2023/02/07 10:41:15;;;;;;;23.83;14.27;;;;;;;-145.18;100.00;60484.78;5074274;28;20158;-67
2023/02/07 10:43:44;;;;;;;21.43;11.40;;;;;;;-145.18;100.00;60484.78;5071102;28;20178;-67
2023/02/07 10:46:14;;;;;;;24.03;13.27;;;;;;;-145.18;100.00;60484.78;5071464;28;20357;-67
2023/02/07 10:48:39;;;;;;;19.37;9.47;;;;;;;-145.18;100.00;60484.78;5067516;28;20094;-67
2023/02/07 10:51:34;;;;;;;20.30;9.53;;;;;;;-145.18;100.00;60484.78;5073082;28;20048;-67
2023/02/07 10:54:00;;;;;;;19.67;10.40;;;;;;;-145.18;100.00;60484.78;5071761;28;20127;-67
2023/02/07 10:56:27;;;;;;;23.17;12.50;;;;;;;-145.18;100.00;60484.78;5074506;28;20392;-66
2023/02/07 10:58:54;;;;;;;23.10;12.73;;;;;;;-145.18;100.00;60484.78;5072898;28;20028;-67
2023/02/07 11:01:23;;;;;;;23.10;12.57;;;;;;;-145.18;100.00;60484.78;5073838;28;20036;-66